sensor_id;sensor_type;location;lat;lon;timestamp;pressure;altitude;pressure_sealevel;temperature;humidity
13080;BME280;6606;49.154;9.280;2022-08-19T00:01:12;99109.16;;;22.27;100.00
13080;BME280;6606;49.154;9.280;2022-08-19T00:03:40;99111.34;;;22.31;100.00
13080;BME280;6606;49.154;9.280;2022-08-19T00:06:06;99105.25;;;22.29;100.00
13080;BME280;6606;49.154;9.280;2022-08-19T00:08:34;99091.91;;;22.28;100.00
13080;BME280;6606;49.154;9.280;2022-08-19T00:11:01;99080.28;;;22.27;100.00
13080;BME280;6606;49.154;9.280;2022-08-19T00:13:27;99089.06;;;22.29;100.00
13080;BME280;6606;49.154;9.280;2022-08-19T00:15:54;99085.03;;;22.33;100.00
13080;BME280;6606;49.154;9.280;2022-08-19T00:18:21;99093.78;;;22.35;100.00
13080;BME280;6606;49.154;9.280;2022-08-19T00:20:49;99094.63;;;22.36;100.00
13080;BME280;6606;49.154;9.280;2022-08-19T00:23:16;99091.94;;;22.36;100.00
13080;BME280;6606;49.154;9.280;2022-08-19T00:25:42;99094.81;;;22.34;100.00
13080;BME280;6606;49.154;9.280;2022-08-19T00:28:09;99095.84;;;22.33;100.00
13080;BME280;6606;49.154;9.280;2022-08-19T00:30:36;99102.22;;;22.32;100.00
13080;BME280;6606;49.154;9.280;2022-08-19T00:33:03;99109.66;;;22.38;100.00
13080;BME280;6606;49.154;9.280;2022-08-19T00:35:30;99107.47;;;22.34;100.00
13080;BME280;6606;49.154;9.280;2022-08-19T00:37:58;99102.56;;;22.37;100.00
13080;BME280;6606;49.154;9.280;2022-08-19T00:40:25;99087.56;;;22.35;100.00
13080;BME280;6606;49.154;9.280;2022-08-19T00:42:52;99088.06;;;22.38;100.00
13080;BME280;6606;49.154;9.280;2022-08-19T00:45:22;99094.81;;;22.34;100.00
13080;BME280;6606;49.154;9.280;2022-08-19T00:47:49;99086.72;;;22.34;100.00
13080;BME280;6606;49.154;9.280;2022-08-19T00:50:18;99080.47;;;22.34;100.00
13080;BME280;6606;49.154;9.280;2022-08-19T00:52:48;99064.09;;;22.27;100.00
13080;BME280;6606;49.154;9.280;2022-08-19T00:55:19;99066.09;;;22.25;100.00
13080;BME280;6606;49.154;9.280;2022-08-19T00:57:50;99070.31;;;22.28;100.00
13080;BME280;6606;49.154;9.280;2022-08-19T01:00:21;99063.25;;;22.27;100.00
13080;BME280;6606;49.154;9.280;2022-08-19T01:02:48;99064.75;;;22.21;100.00
13080;BME280;6606;49.154;9.280;2022-08-19T01:05:18;99072.03;;;22.21;100.00
13080;BME280;6606;49.154;9.280;2022-08-19T01:07:46;99077.88;;;22.16;100.00
13080;BME280;6606;49.154;9.280;2022-08-19T01:10:18;99088.19;;;22.12;100.00
13080;BME280;6606;49.154;9.280;2022-08-19T01:12:47;99098.44;;;22.09;100.00
13080;BME280;6606;49.154;9.280;2022-08-19T01:15:18;99086.31;;;22.05;100.00
13080;BME280;6606;49.154;9.280;2022-08-19T01:17:46;99091.50;;;22.06;100.00
13080;BME280;6606;49.154;9.280;2022-08-19T01:20:16;99099.13;;;22.11;100.00
13080;BME280;6606;49.154;9.280;2022-08-19T01:22:46;99107.22;;;22.11;100.00
13080;BME280;6606;49.154;9.280;2022-08-19T01:25:13;99095.38;;;22.04;100.00
13080;BME280;6606;49.154;9.280;2022-08-19T01:27:43;99097.44;;;22.10;100.00
13080;BME280;6606;49.154;9.280;2022-08-19T01:30:12;99095.38;;;21.95;100.00
13080;BME280;6606;49.154;9.280;2022-08-19T01:32:39;99099.94;;;22.03;100.00
13080;BME280;6606;49.154;9.280;2022-08-19T01:35:07;99092.19;;;22.08;100.00
13080;BME280;6606;49.154;9.280;2022-08-19T01:37:42;99093.72;;;22.11;100.00
13080;BME280;6606;49.154;9.280;2022-08-19T01:40:11;99091.34;;;22.08;100.00
13080;BME280;6606;49.154;9.280;2022-08-19T01:42:38;99100.97;;;22.10;100.00
13080;BME280;6606;49.154;9.280;2022-08-19T01:45:07;99112.63;;;22.11;100.00
13080;BME280;6606;49.154;9.280;2022-08-19T01:47:34;99099.09;;;22.03;100.00
13080;BME280;6606;49.154;9.280;2022-08-19T01:50:03;99090.31;;;22.01;100.00
13080;BME280;6606;49.154;9.280;2022-08-19T01:52:30;99093.03;;;22.01;100.00
13080;BME280;6606;49.154;9.280;2022-08-19T01:54:57;99090.00;;;22.04;100.00
13080;BME280;6606;49.154;9.280;2022-08-19T01:57:25;99094.38;;;21.97;100.00
13080;BME280;6606;49.154;9.280;2022-08-19T01:59:51;99094.69;;;21.93;100.00
13080;BME280;6606;49.154;9.280;2022-08-19T02:02:18;99095.38;;;21.95;100.00
13080;BME280;6606;49.154;9.280;2022-08-19T02:04:45;99091.50;;;21.98;100.00
13080;BME280;6606;49.154;9.280;2022-08-19T02:07:12;99089.00;;;22.05;100.00
13080;BME280;6606;49.154;9.280;2022-08-19T02:09:39;99084.41;;;21.97;100.00
13080;BME280;6606;49.154;9.280;2022-08-19T02:12:06;99091.31;;;21.91;100.00
13080;BME280;6606;49.154;9.280;2022-08-19T02:14:35;99101.41;;;21.81;100.00
13080;BME280;6606;49.154;9.280;2022-08-19T02:17:02;99102.03;;;21.75;100.00
13080;BME280;6606;49.154;9.280;2022-08-19T02:19:29;99093.91;;;21.67;100.00
13080;BME280;6606;49.154;9.280;2022-08-19T02:21:57;99108.41;;;21.66;100.00
13080;BME280;6606;49.154;9.280;2022-08-19T02:24:24;99102.69;;;21.69;100.00
13080;BME280;6606;49.154;9.280;2022-08-19T02:26:52;99095.94;;;21.65;100.00
13080;BME280;6606;49.154;9.280;2022-08-19T02:29:19;99095.56;;;21.51;100.00
13080;BME280;6606;49.154;9.280;2022-08-19T02:31:47;99096.19;;;21.45;100.00
13080;BME280;6606;49.154;9.280;2022-08-19T02:34:13;99095.00;;;21.48;100.00
13080;BME280;6606;49.154;9.280;2022-08-19T02:36:40;99102.91;;;21.41;100.00
13080;BME280;6606;49.154;9.280;2022-08-19T02:39:07;99092.47;;;21.38;100.00
13080;BME280;6606;49.154;9.280;2022-08-19T02:41:33;99093.41;;;21.37;100.00
13080;BME280;6606;49.154;9.280;2022-08-19T02:44:02;99108.75;;;21.37;100.00
13080;BME280;6606;49.154;9.280;2022-08-19T02:46:31;99107.63;;;21.39;100.00
13080;BME280;6606;49.154;9.280;2022-08-19T02:49:06;99114.69;;;21.40;100.00
13080;BME280;6606;49.154;9.280;2022-08-19T02:51:35;99102.91;;;21.41;100.00
13080;BME280;6606;49.154;9.280;2022-08-19T02:54:02;99097.19;;;21.44;100.00
13080;BME280;6606;49.154;9.280;2022-08-19T02:56:30;99100.59;;;21.46;100.00
13080;BME280;6606;49.154;9.280;2022-08-19T02:58:57;99103.28;;;21.46;100.00
13080;BME280;6606;49.154;9.280;2022-08-19T03:01:26;99102.91;;;21.41;100.00
13080;BME280;6606;49.154;9.280;2022-08-19T03:03:55;99100.22;;;21.41;100.00
13080;BME280;6606;49.154;9.280;2022-08-19T03:06:23;99111.00;;;21.41;100.00
13080;BME280;6606;49.154;9.280;2022-08-19T03:08:50;99105.94;;;21.38;100.00
13080;BME280;6606;49.154;9.280;2022-08-19T03:11:19;99100.56;;;21.38;100.00
13080;BME280;6606;49.154;9.280;2022-08-19T03:13:46;99106.19;;;21.35;100.00
13080;BME280;6606;49.154;9.280;2022-08-19T03:16:14;99106.59;;;21.40;100.00
13080;BME280;6606;49.154;9.280;2022-08-19T03:18:41;99102.09;;;21.41;100.00
13080;BME280;6606;49.154;9.280;2022-08-19T03:21:08;99100.22;;;21.41;100.00
13080;BME280;6606;49.154;9.280;2022-08-19T03:23:36;99104.19;;;21.37;100.00
13080;BME280;6606;49.154;9.280;2022-08-19T03:26:04;99097.22;;;21.26;100.00
13080;BME280;6606;49.154;9.280;2022-08-19T03:28:32;99103.69;;;21.34;100.00
13080;BME280;6606;49.154;9.280;2022-08-19T03:31:01;99101.78;;;21.26;100.00
13080;BME280;6606;49.154;9.280;2022-08-19T03:33:29;99108.53;;;21.30;100.00
13080;BME280;6606;49.154;9.280;2022-08-19T03:36:03;99108.53;;;21.30;100.00
13080;BME280;6606;49.154;9.280;2022-08-19T03:38:31;99119.88;;;21.34;100.00
13080;BME280;6606;49.154;9.280;2022-08-19T03:41:04;99127.06;;;21.25;100.00
13080;BME280;6606;49.154;9.280;2022-08-19T03:43:34;99126.19;;;21.24;100.00
13080;BME280;6606;49.154;9.280;2022-08-19T03:46:04;99122.84;;;21.22;100.00
13080;BME280;6606;49.154;9.280;2022-08-19T03:48:32;99112.19;;;21.21;100.00
13080;BME280;6606;49.154;9.280;2022-08-19T03:50:59;99108.66;;;21.20;100.00
13080;BME280;6606;49.154;9.280;2022-08-19T03:53:26;99106.13;;;21.19;100.00
13080;BME280;6606;49.154;9.280;2022-08-19T03:55:53;99110.53;;;21.20;100.00
13080;BME280;6606;49.154;9.280;2022-08-19T03:58:22;99108.75;;;21.11;100.00
13080;BME280;6606;49.154;9.280;2022-08-19T04:00:49;99111.09;;;21.05;100.00
13080;BME280;6606;49.154;9.280;2022-08-19T04:03:15;99112.47;;;21.10;100.00
13080;BME280;6606;49.154;9.280;2022-08-19T04:05:44;99111.13;;;21.14;100.00
13080;BME280;6606;49.154;9.280;2022-08-19T04:08:14;99111.78;;;21.07;100.00
13080;BME280;6606;49.154;9.280;2022-08-19T04:10:46;99107.56;;;21.05;100.00
13080;BME280;6606;49.154;9.280;2022-08-19T04:13:12;99111.91;;;21.06;100.00
13080;BME280;6606;49.154;9.280;2022-08-19T04:15:41;99109.59;;;21.11;100.00
13080;BME280;6606;49.154;9.280;2022-08-19T04:18:09;99112.09;;;21.04;100.00
13080;BME280;6606;49.154;9.280;2022-08-19T04:20:40;99109.72;;;21.01;100.00
13080;BME280;6606;49.154;9.280;2022-08-19T04:23:07;99118.06;;;21.16;100.00
13080;BME280;6606;49.154;9.280;2022-08-19T04:25:39;99114.16;;;21.11;100.00
13080;BME280;6606;49.154;9.280;2022-08-19T04:28:07;99102.06;;;21.15;100.00
13080;BME280;6606;49.154;9.280;2022-08-19T04:30:41;99119.91;;;21.16;100.00
13080;BME280;6606;49.154;9.280;2022-08-19T04:33:10;99109.97;;;21.16;100.00
13080;BME280;6606;49.154;9.280;2022-08-19T04:35:38;99116.91;;;21.19;100.00
13080;BME280;6606;49.154;9.280;2022-08-19T04:38:05;99124.66;;;21.22;100.00
13080;BME280;6606;49.154;9.280;2022-08-19T04:40:32;99114.91;;;21.21;100.00
13080;BME280;6606;49.154;9.280;2022-08-19T04:43:17;99105.50;;;21.25;100.00
13080;BME280;6606;49.154;9.280;2022-08-19T04:45:45;99108.53;;;21.30;100.00
13080;BME280;6606;49.154;9.280;2022-08-19T04:48:12;99106.00;;;21.28;100.00
13080;BME280;6606;49.154;9.280;2022-08-19T04:50:41;99110.88;;;21.25;100.00
13080;BME280;6606;49.154;9.280;2022-08-19T04:53:09;99115.41;;;21.24;100.00
13080;BME280;6606;49.154;9.280;2022-08-19T04:55:39;99117.97;;;21.26;100.00
13080;BME280;6606;49.154;9.280;2022-08-19T04:58:06;99123.03;;;21.29;100.00
13080;BME280;6606;49.154;9.280;2022-08-19T05:00:33;99119.63;;;21.27;100.00
13080;BME280;6606;49.154;9.280;2022-08-19T05:03:01;99115.25;;;21.26;100.00
13080;BME280;6606;49.154;9.280;2022-08-19T05:05:28;99123.72;;;21.31;100.00
13080;BME280;6606;49.154;9.280;2022-08-19T05:07:57;99116.63;;;21.30;100.00
13080;BME280;6606;49.154;9.280;2022-08-19T05:10:23;99128.16;;;21.40;100.00
13080;BME280;6606;49.154;9.280;2022-08-19T05:12:50;99127.38;;;21.48;100.00
13080;BME280;6606;49.154;9.280;2022-08-19T05:15:17;99130.25;;;21.46;100.00
13080;BME280;6606;49.154;9.280;2022-08-19T05:17:44;99133.56;;;21.40;100.00
13080;BME280;6606;49.154;9.280;2022-08-19T05:20:32;99140.38;;;21.52;100.00
13080;BME280;6606;49.154;9.280;2022-08-19T05:23:16;99141.44;;;21.60;100.00
13080;BME280;6606;49.154;9.280;2022-08-19T05:25:43;99144.63;;;21.55;100.00
13080;BME280;6606;49.154;9.280;2022-08-19T05:28:10;99143.97;;;21.61;100.00
13080;BME280;6606;49.154;9.280;2022-08-19T05:30:36;99145.81;;;21.61;100.00
13080;BME280;6606;49.154;9.280;2022-08-19T05:33:03;99155.28;;;21.65;100.00
13080;BME280;6606;49.154;9.280;2022-08-19T05:35:31;99164.69;;;21.61;100.00
13080;BME280;6606;49.154;9.280;2022-08-19T05:37:58;99171.13;;;21.60;100.00
13080;BME280;6606;49.154;9.280;2022-08-19T05:40:24;99177.16;;;21.62;100.00
13080;BME280;6606;49.154;9.280;2022-08-19T05:42:51;99174.13;;;21.57;100.00
13080;BME280;6606;49.154;9.280;2022-08-19T05:45:18;99182.22;;;21.57;100.00
13080;BME280;6606;49.154;9.280;2022-08-19T05:47:46;99187.97;;;21.62;100.00
13080;BME280;6606;49.154;9.280;2022-08-19T05:50:13;99202.22;;;21.80;100.00
13080;BME280;6606;49.154;9.280;2022-08-19T05:52:41;99197.66;;;21.72;100.00
13080;BME280;6606;49.154;9.280;2022-08-19T05:55:08;99197.06;;;21.61;100.00
13080;BME280;6606;49.154;9.280;2022-08-19T05:57:35;99202.13;;;21.64;100.00
13080;BME280;6606;49.154;9.280;2022-08-19T06:00:03;99209.44;;;21.71;100.00
13080;BME280;6606;49.154;9.280;2022-08-19T06:02:37;99208.59;;;21.71;100.00
13080;BME280;6606;49.154;9.280;2022-08-19T06:05:04;99209.25;;;21.65;100.00
13080;BME280;6606;49.154;9.280;2022-08-19T06:07:34;99214.19;;;21.78;100.00
13080;BME280;6606;49.154;9.280;2022-08-19T06:10:02;99219.72;;;21.68;100.00
13080;BME280;6606;49.154;9.280;2022-08-19T06:12:30;99210.28;;;21.72;100.00
13080;BME280;6606;49.154;9.280;2022-08-19T06:15:01;99219.06;;;21.74;100.00
13080;BME280;6606;49.154;9.280;2022-08-19T06:17:28;99220.13;;;21.81;100.00
13080;BME280;6606;49.154;9.280;2022-08-19T06:19:55;99223.19;;;21.86;100.00
13080;BME280;6606;49.154;9.280;2022-08-19T06:22:23;99220.44;;;21.78;100.00
13080;BME280;6606;49.154;9.280;2022-08-19T06:24:49;99220.06;;;21.73;100.00
13080;BME280;6606;49.154;9.280;2022-08-19T06:27:19;99220.31;;;21.62;100.00
13080;BME280;6606;49.154;9.280;2022-08-19T06:29:46;99217.06;;;21.76;100.00
13080;BME280;6606;49.154;9.280;2022-08-19T06:32:15;99217.16;;;22.01;100.00
13080;BME280;6606;49.154;9.280;2022-08-19T06:34:43;99216.88;;;22.12;100.00
13080;BME280;6606;49.154;9.280;2022-08-19T06:37:10;99216.25;;;22.18;100.00
13080;BME280;6606;49.154;9.280;2022-08-19T06:39:39;99217.94;;;22.19;100.00
13080;BME280;6606;49.154;9.280;2022-08-19T06:42:07;99215.84;;;22.05;100.00
13080;BME280;6606;49.154;9.280;2022-08-19T06:44:40;99220.19;;;21.98;100.00
13080;BME280;6606;49.154;9.280;2022-08-19T06:47:08;99224.59;;;22.07;100.00
13080;BME280;6606;49.154;9.280;2022-08-19T06:49:35;99223.25;;;22.03;100.00
13080;BME280;6606;49.154;9.280;2022-08-19T06:52:03;99222.59;;;22.09;100.00
13080;BME280;6606;49.154;9.280;2022-08-19T06:54:30;99220.06;;;22.33;100.00
13080;BME280;6606;49.154;9.280;2022-08-19T06:56:58;99225.28;;;22.43;100.00
13080;BME280;6606;49.154;9.280;2022-08-19T06:59:28;99216.69;;;22.39;100.00
13080;BME280;6606;49.154;9.280;2022-08-19T07:02:00;99214.66;;;22.33;100.00
13080;BME280;6606;49.154;9.280;2022-08-19T07:04:32;99220.56;;;22.37;100.00
13080;BME280;6606;49.154;9.280;2022-08-19T07:07:01;99219.06;;;22.43;100.00
13080;BME280;6606;49.154;9.280;2022-08-19T07:09:29;99207.88;;;22.29;100.00
13080;BME280;6606;49.154;9.280;2022-08-19T07:11:55;99217.91;;;22.61;100.00
13080;BME280;6606;49.154;9.280;2022-08-19T07:14:24;99218.81;;;22.87;100.00
13080;BME280;6606;49.154;9.280;2022-08-19T07:16:53;99218.81;;;22.78;100.00
13080;BME280;6606;49.154;9.280;2022-08-19T07:19:24;99218.81;;;22.95;100.00
13080;BME280;6606;49.154;9.280;2022-08-19T07:21:53;99224.94;;;23.13;100.00
13080;BME280;6606;49.154;9.280;2022-08-19T07:24:21;99227.28;;;23.24;100.00
13080;BME280;6606;49.154;9.280;2022-08-19T07:26:51;99231.66;;;23.34;100.00
13080;BME280;6606;49.154;9.280;2022-08-19T07:29:19;99240.66;;;23.34;100.00
13080;BME280;6606;49.154;9.280;2022-08-19T07:31:48;99230.66;;;23.51;100.00
13080;BME280;6606;49.154;9.280;2022-08-19T07:34:16;99225.41;;;23.66;100.00
13080;BME280;6606;49.154;9.280;2022-08-19T07:36:44;99228.28;;;23.56;100.00
13080;BME280;6606;49.154;9.280;2022-08-19T07:39:14;99230.59;;;23.84;100.00
13080;BME280;6606;49.154;9.280;2022-08-19T07:41:42;99240.13;;;23.72;100.00
13080;BME280;6606;49.154;9.280;2022-08-19T07:44:09;99238.59;;;23.44;100.00
13080;BME280;6606;49.154;9.280;2022-08-19T07:46:39;99247.56;;;23.61;100.00
13080;BME280;6606;49.154;9.280;2022-08-19T07:49:07;99234.81;;;23.86;100.00
13080;BME280;6606;49.154;9.280;2022-08-19T07:51:45;99245.53;;;23.72;100.00
13080;BME280;6606;49.154;9.280;2022-08-19T07:54:12;99248.75;;;23.51;100.00
13080;BME280;6606;49.154;9.280;2022-08-19T07:56:41;99257.38;;;23.38;100.00
13080;BME280;6606;49.154;9.280;2022-08-19T07:59:11;99252.31;;;23.26;100.00
13080;BME280;6606;49.154;9.280;2022-08-19T08:01:38;99248.94;;;23.24;100.00
13080;BME280;6606;49.154;9.280;2022-08-19T08:04:06;99239.63;;;23.27;100.00
13080;BME280;6606;49.154;9.280;2022-08-19T08:06:57;99250.78;;;23.40;100.00
13080;BME280;6606;49.154;9.280;2022-08-19T08:09:43;99245.19;;;23.34;100.00
13080;BME280;6606;49.154;9.280;2022-08-19T08:12:12;99234.38;;;23.34;100.00
13080;BME280;6606;49.154;9.280;2022-08-19T08:14:41;99248.22;;;23.39;100.00
13080;BME280;6606;49.154;9.280;2022-08-19T08:17:10;99245.53;;;23.47;100.00
13080;BME280;6606;49.154;9.280;2022-08-19T08:19:38;99241.47;;;23.51;100.00
13080;BME280;6606;49.154;9.280;2022-08-19T08:22:08;99247.56;;;23.61;100.00
13080;BME280;6606;49.154;9.280;2022-08-19T08:24:56;99249.22;;;23.79;100.00
13080;BME280;6606;49.154;9.280;2022-08-19T08:27:24;99256.31;;;23.96;100.00
13080;BME280;6606;49.154;9.280;2022-08-19T08:29:51;99257.00;;;23.90;100.00
13080;BME280;6606;49.154;9.280;2022-08-19T08:32:18;99262.41;;;23.90;100.00
13080;BME280;6606;49.154;9.280;2022-08-19T08:34:44;99262.25;;;23.83;100.00
13080;BME280;6606;49.154;9.280;2022-08-19T08:37:12;99263.28;;;23.74;100.00
13080;BME280;6606;49.154;9.280;2022-08-19T08:39:39;99258.88;;;23.73;100.00
13080;BME280;6606;49.154;9.280;2022-08-19T08:42:09;99262.75;;;23.79;100.00
13080;BME280;6606;49.154;9.280;2022-08-19T08:44:44;99258.53;;;23.68;100.00
13080;BME280;6606;49.154;9.280;2022-08-19T08:47:14;99260.72;;;23.89;100.00
13080;BME280;6606;49.154;9.280;2022-08-19T08:49:47;99267.13;;;23.96;100.00
13080;BME280;6606;49.154;9.280;2022-08-19T08:52:21;99264.94;;;23.91;100.00
13080;BME280;6606;49.154;9.280;2022-08-19T08:54:50;99257.69;;;23.84;100.00
13080;BME280;6606;49.154;9.280;2022-08-19T08:57:21;99256.94;;;24.06;100.00
13080;BME280;6606;49.154;9.280;2022-08-19T08:59:51;99257.91;;;24.22;100.00
13080;BME280;6606;49.154;9.280;2022-08-19T09:02:20;99252.75;;;24.43;100.00
13080;BME280;6606;49.154;9.280;2022-08-19T09:04:47;99251.22;;;24.49;100.00
13080;BME280;6606;49.154;9.280;2022-08-19T09:07:27;99249.13;;;24.90;100.00
13080;BME280;6606;49.154;9.280;2022-08-19T09:10:05;99246.22;;;25.15;100.00
13080;BME280;6606;49.154;9.280;2022-08-19T09:12:46;99239.47;;;25.11;100.00
13080;BME280;6606;49.154;9.280;2022-08-19T09:15:28;99231.59;;;25.24;100.00
13080;BME280;6606;49.154;9.280;2022-08-19T09:17:59;99242.00;;;24.89;100.00
13080;BME280;6606;49.154;9.280;2022-08-19T09:20:30;99240.44;;;24.72;100.00
13080;BME280;6606;49.154;9.280;2022-08-19T09:22:58;99243.66;;;24.67;100.00
13080;BME280;6606;49.154;9.280;2022-08-19T09:25:25;99246.81;;;24.79;100.00
13080;BME280;6606;49.154;9.280;2022-08-19T09:27:53;99239.81;;;24.85;100.00
13080;BME280;6606;49.154;9.280;2022-08-19T09:30:23;99244.28;;;24.46;100.00
13080;BME280;6606;49.154;9.280;2022-08-19T09:32:51;99244.59;;;24.51;100.00
13080;BME280;6606;49.154;9.280;2022-08-19T09:35:20;99253.03;;;24.56;100.00
13080;BME280;6606;49.154;9.280;2022-08-19T09:37:49;99247.78;;;24.55;100.00
13080;BME280;6606;49.154;9.280;2022-08-19T09:43:33;99247.16;;;24.76;100.00
13080;BME280;6606;49.154;9.280;2022-08-19T09:46:02;99254.84;;;24.95;100.00
13080;BME280;6606;49.154;9.280;2022-08-19T09:48:30;99256.75;;;25.18;100.00
13080;BME280;6606;49.154;9.280;2022-08-19T09:51:02;99258.06;;;25.14;100.00
13080;BME280;6606;49.154;9.280;2022-08-19T09:53:29;99259.00;;;25.29;100.00
13080;BME280;6606;49.154;9.280;2022-08-19T09:55:56;99260.56;;;25.47;100.00
13080;BME280;6606;49.154;9.280;2022-08-19T09:58:23;99258.38;;;25.65;100.00
13080;BME280;6606;49.154;9.280;2022-08-19T10:00:54;99263.63;;;25.81;100.00
13080;BME280;6606;49.154;9.280;2022-08-19T10:03:21;99257.66;;;26.01;100.00
13080;BME280;6606;49.154;9.280;2022-08-19T10:05:48;99254.50;;;26.12;100.00
13080;BME280;6606;49.154;9.280;2022-08-19T10:08:17;99257.03;;;25.61;100.00
13080;BME280;6606;49.154;9.280;2022-08-19T10:10:44;99254.91;;;25.33;100.00
13080;BME280;6606;49.154;9.280;2022-08-19T10:13:11;99264.72;;;25.34;100.00
13080;BME280;6606;49.154;9.280;2022-08-19T10:15:38;99267.88;;;25.61;100.00
13080;BME280;6606;49.154;9.280;2022-08-19T10:18:07;99258.38;;;25.65;100.00
13080;BME280;6606;49.154;9.280;2022-08-19T10:20:34;99262.59;;;25.82;100.00
13080;BME280;6606;49.154;9.280;2022-08-19T10:23:02;99256.94;;;26.07;100.00
13080;BME280;6606;49.154;9.280;2022-08-19T10:25:29;99252.91;;;26.18;100.00
13080;BME280;6606;49.154;9.280;2022-08-19T10:27:56;99244.94;;;26.16;100.00
13080;BME280;6606;49.154;9.280;2022-08-19T10:30:22;99239.59;;;26.23;100.00
13080;BME280;6606;49.154;9.280;2022-08-19T10:32:49;99246.13;;;26.58;100.00
13080;BME280;6606;49.154;9.280;2022-08-19T10:35:17;99239.56;;;26.89;100.00
13080;BME280;6606;49.154;9.280;2022-08-19T10:37:44;99245.47;;;26.92;100.00
13080;BME280;6606;49.154;9.280;2022-08-19T10:40:11;99237.22;;;27.50;100.00
13080;BME280;6606;49.154;9.280;2022-08-19T10:42:38;99240.44;;;27.82;100.00
13080;BME280;6606;49.154;9.280;2022-08-19T10:45:05;99234.44;;;27.72;100.00
13080;BME280;6606;49.154;9.280;2022-08-19T10:47:32;99236.38;;;28.06;100.00
13080;BME280;6606;49.154;9.280;2022-08-19T10:49:59;99237.22;;;28.06;100.00
13080;BME280;6606;49.154;9.280;2022-08-19T10:52:57;99225.28;;;28.49;99.07
13080;BME280;6606;49.154;9.280;2022-08-19T10:55:24;99229.59;;;28.37;100.00
13080;BME280;6606;49.154;9.280;2022-08-19T10:58:12;99221.81;;;28.34;100.00
13080;BME280;6606;49.154;9.280;2022-08-19T11:00:39;99227.28;;;27.92;100.00
13080;BME280;6606;49.154;9.280;2022-08-19T11:03:07;99220.59;;;27.95;100.00
13080;BME280;6606;49.154;9.280;2022-08-19T11:05:33;99231.44;;;27.88;100.00
13080;BME280;6606;49.154;9.280;2022-08-19T11:08:02;99219.09;;;27.36;100.00
13080;BME280;6606;49.154;9.280;2022-08-19T11:10:29;99226.28;;;27.01;100.00
13080;BME280;6606;49.154;9.280;2022-08-19T11:12:56;99222.75;;;27.22;100.00
13080;BME280;6606;49.154;9.280;2022-08-19T11:15:22;99214.66;;;27.56;100.00
13080;BME280;6606;49.154;9.280;2022-08-19T11:17:51;99221.25;;;27.69;100.00
13080;BME280;6606;49.154;9.280;2022-08-19T11:20:19;99216.66;;;27.76;100.00
13080;BME280;6606;49.154;9.280;2022-08-19T11:22:45;99213.75;;;28.05;100.00
13080;BME280;6606;49.154;9.280;2022-08-19T11:25:14;99205.00;;;27.82;97.07
13080;BME280;6606;49.154;9.280;2022-08-19T11:27:40;99211.44;;;27.74;96.02
13080;BME280;6606;49.154;9.280;2022-08-19T11:30:09;99201.13;;;27.98;95.02
13080;BME280;6606;49.154;9.280;2022-08-19T11:32:36;99210.78;;;28.00;98.86
13080;BME280;6606;49.154;9.280;2022-08-19T11:35:04;99214.41;;;28.14;98.35
13080;BME280;6606;49.154;9.280;2022-08-19T11:37:30;99212.44;;;27.95;96.80
13080;BME280;6606;49.154;9.280;2022-08-19T11:39:57;99216.41;;;27.92;98.23
13080;BME280;6606;49.154;9.280;2022-08-19T11:42:26;99208.84;;;27.94;97.39
13080;BME280;6606;49.154;9.280;2022-08-19T11:45:10;99207.34;;;27.92;98.08
13080;BME280;6606;49.154;9.280;2022-08-19T11:47:39;99206.66;;;28.18;93.49
13080;BME280;6606;49.154;9.280;2022-08-19T11:50:07;99208.69;;;28.02;97.20
13080;BME280;6606;49.154;9.280;2022-08-19T11:52:35;99210.78;;;28.00;99.24
13080;BME280;6606;49.154;9.280;2022-08-19T11:55:01;99217.00;;;27.94;94.78
13080;BME280;6606;49.154;9.280;2022-08-19T11:57:29;99212.34;;;27.81;96.11
13080;BME280;6606;49.154;9.280;2022-08-19T11:59:56;99216.81;;;27.68;96.74
13080;BME280;6606;49.154;9.280;2022-08-19T12:02:23;99211.88;;;27.22;98.39
13080;BME280;6606;49.154;9.280;2022-08-19T12:04:50;99211.31;;;27.11;99.98
13080;BME280;6606;49.154;9.280;2022-08-19T12:07:17;99215.22;;;27.02;100.00
13080;BME280;6606;49.154;9.280;2022-08-19T12:09:44;99215.84;;;26.83;100.00
13080;BME280;6606;49.154;9.280;2022-08-19T12:12:11;99221.50;;;26.81;100.00
13080;BME280;6606;49.154;9.280;2022-08-19T12:14:39;99226.59;;;26.69;100.00
13080;BME280;6606;49.154;9.280;2022-08-19T12:17:05;99223.88;;;26.69;100.00
13080;BME280;6606;49.154;9.280;2022-08-19T12:19:35;99223.88;;;26.69;100.00
13080;BME280;6606;49.154;9.280;2022-08-19T12:22:02;99211.19;;;26.77;100.00
13080;BME280;6606;49.154;9.280;2022-08-19T12:24:31;99212.09;;;27.05;100.00
13080;BME280;6606;49.154;9.280;2022-08-19T12:27:01;99205.69;;;27.34;100.00
13080;BME280;6606;49.154;9.280;2022-08-19T12:29:28;99204.00;;;27.90;98.05
13080;BME280;6606;49.154;9.280;2022-08-19T12:31:57;99195.94;;;28.58;95.46
13080;BME280;6606;49.154;9.280;2022-08-19T12:34:28;99195.97;;;28.84;89.24
13080;BME280;6606;49.154;9.280;2022-08-19T12:36:57;99199.13;;;28.81;91.21
13080;BME280;6606;49.154;9.280;2022-08-19T12:39:24;99201.31;;;29.19;83.39
13080;BME280;6606;49.154;9.280;2022-08-19T12:41:51;99197.75;;;29.39;83.12
13080;BME280;6606;49.154;9.280;2022-08-19T12:44:18;99196.41;;;30.01;81.65
13080;BME280;6606;49.154;9.280;2022-08-19T12:46:45;99186.25;;;30.28;78.01
13080;BME280;6606;49.154;9.280;2022-08-19T12:49:14;99195.16;;;29.97;77.36
13080;BME280;6606;49.154;9.280;2022-08-19T12:51:41;99192.91;;;29.47;75.85
13080;BME280;6606;49.154;9.280;2022-08-19T12:54:08;99193.13;;;29.39;78.98
13080;BME280;6606;49.154;9.280;2022-08-19T12:56:36;99199.78;;;28.83;83.23
13080;BME280;6606;49.154;9.280;2022-08-19T12:59:09;99201.69;;;28.96;80.06
13080;BME280;6606;49.154;9.280;2022-08-19T13:01:36;99200.63;;;28.97;80.43
13080;BME280;6606;49.154;9.280;2022-08-19T13:04:03;99199.13;;;28.75;80.54
13080;BME280;6606;49.154;9.280;2022-08-19T13:06:31;99203.19;;;29.05;82.11
13080;BME280;6606;49.154;9.280;2022-08-19T13:08:58;99203.19;;;29.19;79.20
13080;BME280;6606;49.154;9.280;2022-08-19T13:11:25;99196.06;;;29.11;81.07
13080;BME280;6606;49.154;9.280;2022-08-19T13:13:52;99203.38;;;29.04;83.38